首页
METAR-TAF:

METAR-TAF

机场 :

Charles M. Schulz - Sonoma County Airport

聖羅莎, 加利福尼亚州, 美国

纬度: 38-30-00N, 经度: 122-49-00W, 海拔: 38米

当前天气观测

该预报发布于58分钟前的00:53 UTC
风速10节,风向南转南东
温度 24°C
湿度 36%
气压 1013 hPa
能見度: 16.1公里
少量云层高于5000英尺

METAR: KSTS 210053Z 16010KT 10SM FEW050 24/08 A2990 RMK AO2 SLP120 T02390078

时间: 18:51 (01:51 UTC)

预报

该预报发布于2小时和31分钟前的23:20 UTC
预报有效从21日的 00点(UTC)到 21日的 24点(UTC)
风速11节,风向
能見度: 10公里
天空无云
从 21日的 0300点(UTC)
风速5节,风向多变
能見度: 10公里
天空无云
从 21日的 1700点(UTC)
风速3节,风向北转西北
能見度: 10公里
天空无云
从 21日的 1800点(UTC)
风速10节,风向南转西南
能見度: 10公里
少量云层高于25000英尺

TAF: KSTS 202320Z 2100/2124 17011KT P6SM SKC FM210300 VRB05KT P6SM SKC FM211700 34003KT P6SM SKC FM211800 20010KT P6SM FEW250

超过4000个机场的气象观测和天气预报(METAR&TAF报告)。

可查询的气象台以黄色和红色小点在地图上表示。

将鼠标移到小点上方,可查看气象台名称。

然后点击查看天气观测和预报。

如需切换地图:点击带黑十字的绿色按钮放大地图;点击带横线的绿色按钮缩小地图;或者点击绿色箭头查看邻近地区的地图。


METAR-TAF: